sensor_id;sensor_type;location;lat;lon;timestamp;pressure;altitude;pressure_sealevel;temperature;humidity
69351;BME280;57106;51.446;-2.606;2023-04-27T00:04:17;101644.52;;;10.37;58.79
69351;BME280;57106;51.446;-2.606;2023-04-27T00:09:04;101643.87;;;10.53;58.28
69351;BME280;57106;51.446;-2.606;2023-04-27T00:11:29;101643.18;;;10.64;57.79
69351;BME280;57106;51.446;-2.606;2023-04-27T00:13:55;101644.18;;;10.53;57.79
69351;BME280;57106;51.446;-2.606;2023-04-27T00:16:21;101643.62;;;10.61;57.81
69351;BME280;57106;51.446;-2.606;2023-04-27T00:18:48;101640.40;;;10.60;57.98
69351;BME280;57106;51.446;-2.606;2023-04-27T00:21:12;101635.64;;;10.43;59.04
69351;BME280;57106;51.446;-2.606;2023-04-27T00:23:40;101631.96;;;10.26;58.88
69351;BME280;57106;51.446;-2.606;2023-04-27T00:28:29;101634.61;;;10.22;58.97
69351;BME280;57106;51.446;-2.606;2023-04-27T00:31:07;101635.15;;;10.05;59.15
69351;BME280;57106;51.446;-2.606;2023-04-27T00:33:20;101632.28;;;10.13;59.45
69351;BME280;57106;51.446;-2.606;2023-04-27T00:35:47;101632.67;;;10.34;59.10
69351;BME280;57106;51.446;-2.606;2023-04-27T00:38:12;101634.83;;;10.30;59.19
69351;BME280;57106;51.446;-2.606;2023-04-27T00:43:08;101633.29;;;10.07;59.72
69351;BME280;57106;51.446;-2.606;2023-04-27T00:45:28;101635.36;;;10.18;59.55
69351;BME280;57106;51.446;-2.606;2023-04-27T00:47:59;101637.23;;;10.25;59.17
69351;BME280;57106;51.446;-2.606;2023-04-27T00:50:27;101639.26;;;10.09;59.98
69351;BME280;57106;51.446;-2.606;2023-04-27T00:52:55;101639.43;;;10.04;60.40
69351;BME280;57106;51.446;-2.606;2023-04-27T00:55:10;101642.06;;;9.88;60.73
69351;BME280;57106;51.446;-2.606;2023-04-27T00:57:37;101639.52;;;9.89;61.06
69351;BME280;57106;51.446;-2.606;2023-04-27T01:12:11;101639.54;;;10.00;60.82
69351;BME280;57106;51.446;-2.606;2023-04-27T01:14:44;101639.66;;;10.05;60.65
69351;BME280;57106;51.446;-2.606;2023-04-27T01:17:19;101639.11;;;9.99;60.78
69351;BME280;57106;51.446;-2.606;2023-04-27T01:21:52;101622.25;;;9.77;61.20
69351;BME280;57106;51.446;-2.606;2023-04-27T01:24:25;101621.19;;;9.55;62.26
69351;BME280;57106;51.446;-2.606;2023-04-27T01:26:44;101617.70;;;9.33;62.92
69351;BME280;57106;51.446;-2.606;2023-04-27T01:29:12;101617.04;;;9.23;62.93
69351;BME280;57106;51.446;-2.606;2023-04-27T01:31:35;101614.90;;;9.24;63.41
69351;BME280;57106;51.446;-2.606;2023-04-27T01:34:07;101608.87;;;9.12;63.87
69351;BME280;57106;51.446;-2.606;2023-04-27T01:36:26;101604.75;;;8.88;64.37
69351;BME280;57106;51.446;-2.606;2023-04-27T01:38:52;101603.85;;;9.08;64.13
69351;BME280;57106;51.446;-2.606;2023-04-27T01:41:21;101606.20;;;9.39;62.89
69351;BME280;57106;51.446;-2.606;2023-04-27T01:43:42;101611.38;;;9.46;63.12
69351;BME280;57106;51.446;-2.606;2023-04-27T01:48:40;101615.90;;;9.42;63.75
69351;BME280;57106;51.446;-2.606;2023-04-27T01:51:00;101613.49;;;9.52;63.45
69351;BME280;57106;51.446;-2.606;2023-04-27T01:55:52;101608.56;;;9.62;63.23
69351;BME280;57106;51.446;-2.606;2023-04-27T01:58:29;101602.20;;;9.35;63.55
69351;BME280;57106;51.446;-2.606;2023-04-27T02:20:09;101583.36;;;9.23;62.02
69351;BME280;57106;51.446;-2.606;2023-04-27T02:22:34;101574.18;;;9.32;61.84
69351;BME280;57106;51.446;-2.606;2023-04-27T02:24:59;101571.55;;;9.24;62.22
69351;BME280;57106;51.446;-2.606;2023-04-27T02:27:27;101573.59;;;9.19;62.15
69351;BME280;57106;51.446;-2.606;2023-04-27T02:29:49;101574.84;;;9.46;61.96
69351;BME280;57106;51.446;-2.606;2023-04-27T02:32:25;101572.07;;;9.61;61.58
69351;BME280;57106;51.446;-2.606;2023-04-27T02:34:42;101569.02;;;9.59;61.50
69351;BME280;57106;51.446;-2.606;2023-04-27T02:37:05;101568.76;;;9.46;62.12
69351;BME280;57106;51.446;-2.606;2023-04-27T02:39:36;101571.28;;;9.62;61.41
69351;BME280;57106;51.446;-2.606;2023-04-27T02:42:06;101570.70;;;9.11;63.29
69351;BME280;57106;51.446;-2.606;2023-04-27T02:44:21;101571.62;;;9.28;62.95
69351;BME280;57106;51.446;-2.606;2023-04-27T02:46:50;101563.12;;;9.62;62.27
69351;BME280;57106;51.446;-2.606;2023-04-27T02:51:38;101558.16;;;9.39;62.65
69351;BME280;57106;51.446;-2.606;2023-04-27T02:54:06;101554.71;;;9.54;62.55
69351;BME280;57106;51.446;-2.606;2023-04-27T02:56:40;101557.95;;;9.21;63.50
69351;BME280;57106;51.446;-2.606;2023-04-27T02:58:59;101555.19;;;9.30;63.04
69351;BME280;57106;51.446;-2.606;2023-04-27T03:01:20;101549.45;;;9.28;63.02
69351;BME280;57106;51.446;-2.606;2023-04-27T03:06:24;101542.53;;;8.85;64.37
69351;BME280;57106;51.446;-2.606;2023-04-27T03:11:07;101537.66;;;8.90;63.27
69351;BME280;57106;51.446;-2.606;2023-04-27T04:06:52;101489.15;;;9.90;59.10
69351;BME280;57106;51.446;-2.606;2023-04-27T04:09:14;101489.07;;;10.02;59.06
69351;BME280;57106;51.446;-2.606;2023-04-27T04:11:39;101486.54;;;10.09;58.70
69351;BME280;57106;51.446;-2.606;2023-04-27T04:18:56;101480.61;;;10.37;58.21
69351;BME280;57106;51.446;-2.606;2023-04-27T04:21:22;101476.60;;;10.20;58.96
69351;BME280;57106;51.446;-2.606;2023-04-27T04:23:49;101477.27;;;10.50;58.28
69351;BME280;57106;51.446;-2.606;2023-04-27T04:26:14;101477.40;;;10.17;58.81
69351;BME280;57106;51.446;-2.606;2023-04-27T04:28:41;101473.62;;;10.03;59.47
69351;BME280;57106;51.446;-2.606;2023-04-27T04:35:56;101454.99;;;10.12;59.85
69351;BME280;57106;51.446;-2.606;2023-04-27T04:40:48;101458.96;;;10.26;59.91
69351;BME280;57106;51.446;-2.606;2023-04-27T04:50:52;101447.97;;;9.96;60.99
69351;BME280;57106;51.446;-2.606;2023-04-27T04:52:54;101445.72;;;9.94;61.41
69351;BME280;57106;51.446;-2.606;2023-04-27T04:55:24;101446.29;;;9.85;61.89
69351;BME280;57106;51.446;-2.606;2023-04-27T04:57:49;101446.40;;;9.96;61.66
69351;BME280;57106;51.446;-2.606;2023-04-27T05:00:12;101440.50;;;9.88;62.02
69351;BME280;57106;51.446;-2.606;2023-04-27T05:02:36;101443.42;;;9.73;62.97
69351;BME280;57106;51.446;-2.606;2023-04-27T05:05:08;101446.92;;;9.95;62.60
69351;BME280;57106;51.446;-2.606;2023-04-27T05:07:29;101449.10;;;10.03;62.45
69351;BME280;57106;51.446;-2.606;2023-04-27T05:09:52;101455.63;;;9.93;62.78
69351;BME280;57106;51.446;-2.606;2023-04-27T05:14:45;101458.18;;;10.05;62.81
69351;BME280;57106;51.446;-2.606;2023-04-27T06:37:33;101432.69;;;11.69;60.92
69351;BME280;57106;51.446;-2.606;2023-04-27T06:40:02;101437.31;;;11.58;61.12
69351;BME280;57106;51.446;-2.606;2023-04-27T06:42:23;101443.38;;;11.41;61.69
69351;BME280;57106;51.446;-2.606;2023-04-27T06:49:34;101444.96;;;11.38;62.21
69351;BME280;57106;51.446;-2.606;2023-04-27T06:52:00;101439.55;;;11.56;62.11
69351;BME280;57106;51.446;-2.606;2023-04-27T06:54:25;101436.13;;;11.19;63.83
69351;BME280;57106;51.446;-2.606;2023-04-27T06:59:15;101419.22;;;11.35;65.38
69351;BME280;57106;51.446;-2.606;2023-04-27T07:01:54;101415.36;;;11.49;65.52
69351;BME280;57106;51.446;-2.606;2023-04-27T07:04:10;101419.21;;;11.14;66.60
69351;BME280;57106;51.446;-2.606;2023-04-27T07:06:31;101418.07;;;11.16;66.42
69351;BME280;57106;51.446;-2.606;2023-04-27T07:08:58;101421.65;;;11.30;66.20
69351;BME280;57106;51.446;-2.606;2023-04-27T07:11:23;101426.58;;;11.27;66.14
69351;BME280;57106;51.446;-2.606;2023-04-27T07:13:48;101427.25;;;11.29;66.78
69351;BME280;57106;51.446;-2.606;2023-04-27T07:16:23;101427.04;;;11.29;66.37
69351;BME280;57106;51.446;-2.606;2023-04-27T07:18:51;101427.29;;;11.41;66.20
69351;BME280;57106;51.446;-2.606;2023-04-27T07:21:04;101426.97;;;11.57;65.52
69351;BME280;57106;51.446;-2.606;2023-04-27T07:23:29;101426.23;;;11.46;65.60
69351;BME280;57106;51.446;-2.606;2023-04-27T07:25:57;101421.55;;;11.63;65.32
69351;BME280;57106;51.446;-2.606;2023-04-27T07:28:22;101429.26;;;11.27;66.08
69351;BME280;57106;51.446;-2.606;2023-04-27T07:30:49;101425.50;;;11.19;66.56
69351;BME280;57106;51.446;-2.606;2023-04-27T07:33:17;101423.13;;;11.32;66.19
69351;BME280;57106;51.446;-2.606;2023-04-27T07:35:39;101412.46;;;11.49;66.26
69351;BME280;57106;51.446;-2.606;2023-04-27T07:40:30;101407.79;;;11.80;65.48
69351;BME280;57106;51.446;-2.606;2023-04-27T07:42:58;101406.33;;;11.91;64.43
69351;BME280;57106;51.446;-2.606;2023-04-27T07:45:26;101413.56;;;11.87;64.21
69351;BME280;57106;51.446;-2.606;2023-04-27T07:47:53;101420.12;;;12.21;63.76
69351;BME280;57106;51.446;-2.606;2023-04-27T07:50:14;101418.70;;;12.18;63.98
69351;BME280;57106;51.446;-2.606;2023-04-27T07:52:38;101414.49;;;11.98;64.05
69351;BME280;57106;51.446;-2.606;2023-04-27T07:55:04;101412.67;;;12.09;64.02
69351;BME280;57106;51.446;-2.606;2023-04-27T07:57:29;101408.41;;;11.79;64.67
69351;BME280;57106;51.446;-2.606;2023-04-27T07:59:56;101405.20;;;11.47;66.03
69351;BME280;57106;51.446;-2.606;2023-04-27T08:02:25;101400.15;;;11.39;66.59
69351;BME280;57106;51.446;-2.606;2023-04-27T08:04:46;101396.81;;;11.40;66.82
69351;BME280;57106;51.446;-2.606;2023-04-27T08:07:14;101394.14;;;11.62;66.01
69351;BME280;57106;51.446;-2.606;2023-04-27T08:12:02;101386.57;;;11.43;66.70
69351;BME280;57106;51.446;-2.606;2023-04-27T08:14:29;101381.97;;;11.63;66.65
69351;BME280;57106;51.446;-2.606;2023-04-27T08:16:54;101373.40;;;11.47;67.40
69351;BME280;57106;51.446;-2.606;2023-04-27T08:19:18;101376.23;;;11.73;66.51
69351;BME280;57106;51.446;-2.606;2023-04-27T08:21:44;101379.51;;;11.57;67.58
69351;BME280;57106;51.446;-2.606;2023-04-27T08:24:11;101378.73;;;11.32;69.27
69351;BME280;57106;51.446;-2.606;2023-04-27T08:26:40;101368.63;;;11.39;68.92
69351;BME280;57106;51.446;-2.606;2023-04-27T08:31:29;101364.57;;;11.76;68.08
69351;BME280;57106;51.446;-2.606;2023-04-27T08:33:53;101368.60;;;11.98;67.08
69351;BME280;57106;51.446;-2.606;2023-04-27T08:36:18;101366.82;;;11.63;67.05
69351;BME280;57106;51.446;-2.606;2023-04-27T08:38:43;101367.95;;;11.57;67.45
69351;BME280;57106;51.446;-2.606;2023-04-27T08:41:10;101360.66;;;11.81;67.16
69351;BME280;57106;51.446;-2.606;2023-04-27T09:51:57;101324.35;;;13.44;62.37
69351;BME280;57106;51.446;-2.606;2023-04-27T09:59:20;101315.58;;;13.95;61.27
69351;BME280;57106;51.446;-2.606;2023-04-27T10:01:33;101320.33;;;14.15;61.18
69351;BME280;57106;51.446;-2.606;2023-04-27T10:42:01;101274.35;;;14.20;61.90
69351;BME280;57106;51.446;-2.606;2023-04-27T10:46:29;101258.61;;;14.16;62.05
69351;BME280;57106;51.446;-2.606;2023-04-27T10:49:05;101251.04;;;14.18;61.70
69351;BME280;57106;51.446;-2.606;2023-04-27T10:59:32;101247.36;;;13.88;62.72
69351;BME280;57106;51.446;-2.606;2023-04-27T11:01:46;101247.90;;;14.17;62.02
69351;BME280;57106;51.446;-2.606;2023-04-27T11:32:16;101192.81;;;13.52;65.88
69351;BME280;57106;51.446;-2.606;2023-04-27T11:36:54;101193.61;;;13.19;67.64
69351;BME280;57106;51.446;-2.606;2023-04-27T11:46:28;101180.34;;;13.39;68.78
69351;BME280;57106;51.446;-2.606;2023-04-27T11:53:00;101185.43;;;13.46;69.70
69351;BME280;57106;51.446;-2.606;2023-04-27T11:58:35;101177.46;;;12.95;70.98
69351;BME280;57106;51.446;-2.606;2023-04-27T12:03:30;101168.84;;;13.03;71.91
69351;BME280;57106;51.446;-2.606;2023-04-27T12:17:11;101150.75;;;12.99;72.82
69351;BME280;57106;51.446;-2.606;2023-04-27T12:19:42;101148.55;;;12.84;73.52
69351;BME280;57106;51.446;-2.606;2023-04-27T12:22:07;101150.13;;;12.93;73.53
69351;BME280;57106;51.446;-2.606;2023-04-27T12:24:28;101151.32;;;13.16;73.21
69351;BME280;57106;51.446;-2.606;2023-04-27T12:26:54;101155.41;;;13.21;73.13
69351;BME280;57106;51.446;-2.606;2023-04-27T12:29:18;101161.78;;;13.18;73.86
69351;BME280;57106;51.446;-2.606;2023-04-27T12:31:46;101165.67;;;13.08;73.81
69351;BME280;57106;51.446;-2.606;2023-04-27T12:34:10;101171.18;;;13.26;73.64
69351;BME280;57106;51.446;-2.606;2023-04-27T12:36:41;101167.50;;;12.97;74.28
69351;BME280;57106;51.446;-2.606;2023-04-27T12:39:12;101168.51;;;13.09;73.90
69351;BME280;57106;51.446;-2.606;2023-04-27T12:41:26;101165.95;;;13.21;73.93
69351;BME280;57106;51.446;-2.606;2023-04-27T12:43:52;101164.08;;;12.71;75.35
69351;BME280;57106;51.446;-2.606;2023-04-27T12:46:17;101166.66;;;12.92;74.80
69351;BME280;57106;51.446;-2.606;2023-04-27T12:48:47;101161.75;;;12.91;75.42
69351;BME280;57106;51.446;-2.606;2023-04-27T12:53:38;101163.31;;;12.89;75.52
69351;BME280;57106;51.446;-2.606;2023-04-27T12:56:01;101159.10;;;12.89;75.71
69351;BME280;57106;51.446;-2.606;2023-04-27T13:08:19;101137.65;;;12.91;76.45
69351;BME280;57106;51.446;-2.606;2023-04-27T13:10:32;101128.00;;;12.79;77.02
69351;BME280;57106;51.446;-2.606;2023-04-27T13:20:15;101101.14;;;12.77;77.81
69351;BME280;57106;51.446;-2.606;2023-04-27T13:22:40;101092.80;;;12.60;77.97
69351;BME280;57106;51.446;-2.606;2023-04-27T13:25:08;101088.60;;;12.89;78.05
69351;BME280;57106;51.446;-2.606;2023-04-27T13:27:31;101082.45;;;12.80;78.52
69351;BME280;57106;51.446;-2.606;2023-04-27T20:24:52;100695.17;;;13.69;78.50
69351;BME280;57106;51.446;-2.606;2023-04-27T20:27:17;100691.41;;;13.47;79.27
69351;BME280;57106;51.446;-2.606;2023-04-27T20:29:43;100686.34;;;13.26;79.95
69351;BME280;57106;51.446;-2.606;2023-04-27T20:32:08;100683.25;;;13.11;80.98
69351;BME280;57106;51.446;-2.606;2023-04-27T20:34:34;100686.24;;;12.99;81.58
69351;BME280;57106;51.446;-2.606;2023-04-27T20:36:59;100683.23;;;12.90;82.39
69351;BME280;57106;51.446;-2.606;2023-04-27T20:39:25;100682.21;;;12.95;82.54
69351;BME280;57106;51.446;-2.606;2023-04-27T20:41:50;100685.91;;;13.10;81.99
69351;BME280;57106;51.446;-2.606;2023-04-27T20:44:16;100691.14;;;13.11;82.11
69351;BME280;57106;51.446;-2.606;2023-04-27T20:46:41;100690.80;;;13.04;82.24
69351;BME280;57106;51.446;-2.606;2023-04-27T20:49:07;100693.42;;;13.12;81.97
69351;BME280;57106;51.446;-2.606;2023-04-27T20:51:32;100693.84;;;13.14;81.77
69351;BME280;57106;51.446;-2.606;2023-04-27T20:53:58;100695.26;;;13.13;82.24
69351;BME280;57106;51.446;-2.606;2023-04-27T20:56:23;100690.56;;;13.28;81.88
69351;BME280;57106;51.446;-2.606;2023-04-27T20:58:49;100689.59;;;13.32;81.50
69351;BME280;57106;51.446;-2.606;2023-04-27T21:01:14;100686.94;;;13.35;81.42
69351;BME280;57106;51.446;-2.606;2023-04-27T21:03:40;100689.96;;;13.33;81.56
69351;BME280;57106;51.446;-2.606;2023-04-27T21:06:06;100690.13;;;13.37;81.48
69351;BME280;57106;51.446;-2.606;2023-04-27T21:08:31;100686.56;;;13.10;82.27
69351;BME280;57106;51.446;-2.606;2023-04-27T21:10:56;100685.35;;;13.07;82.57
69351;BME280;57106;51.446;-2.606;2023-04-27T21:13:22;100684.25;;;12.91;83.41
69351;BME280;57106;51.446;-2.606;2023-04-27T21:15:47;100689.69;;;12.77;84.03
69351;BME280;57106;51.446;-2.606;2023-04-27T21:18:12;100682.37;;;12.91;84.22
69351;BME280;57106;51.446;-2.606;2023-04-27T21:20:37;100682.28;;;12.74;84.50
69351;BME280;57106;51.446;-2.606;2023-04-27T21:23:02;100681.91;;;12.78;84.40
69351;BME280;57106;51.446;-2.606;2023-04-27T21:25:28;100687.12;;;13.04;83.95
69351;BME280;57106;51.446;-2.606;2023-04-27T21:27:53;100693.31;;;13.09;83.44
69351;BME280;57106;51.446;-2.606;2023-04-27T21:30:19;100690.46;;;13.28;82.75
69351;BME280;57106;51.446;-2.606;2023-04-27T21:32:44;100690.85;;;13.19;82.66
69351;BME280;57106;51.446;-2.606;2023-04-27T21:35:10;100694.19;;;13.11;82.88
69351;BME280;57106;51.446;-2.606;2023-04-27T21:37:36;100692.77;;;13.33;82.35
69351;BME280;57106;51.446;-2.606;2023-04-27T21:40:01;100689.16;;;13.38;81.98
69351;BME280;57106;51.446;-2.606;2023-04-27T21:42:26;100686.64;;;13.09;82.96
69351;BME280;57106;51.446;-2.606;2023-04-27T21:44:52;100683.48;;;13.08;83.25
69351;BME280;57106;51.446;-2.606;2023-04-27T21:47:17;100682.70;;;13.11;83.45
69351;BME280;57106;51.446;-2.606;2023-04-27T21:49:43;100684.41;;;13.06;83.66
69351;BME280;57106;51.446;-2.606;2023-04-27T21:52:08;100684.28;;;13.16;83.54
69351;BME280;57106;51.446;-2.606;2023-04-27T21:54:33;100683.68;;;13.21;83.36
69351;BME280;57106;51.446;-2.606;2023-04-27T21:56:59;100686.91;;;13.16;83.42
69351;BME280;57106;51.446;-2.606;2023-04-27T21:59:24;100689.97;;;13.33;82.90
69351;BME280;57106;51.446;-2.606;2023-04-27T22:01:49;100684.48;;;13.19;83.24
69351;BME280;57106;51.446;-2.606;2023-04-27T22:04:15;100685.36;;;13.22;83.57
69351;BME280;57106;51.446;-2.606;2023-04-27T22:06:40;100688.53;;;13.17;83.50
69351;BME280;57106;51.446;-2.606;2023-04-27T22:09:06;100690.62;;;13.19;83.41
69351;BME280;57106;51.446;-2.606;2023-04-27T22:11:31;100687.55;;;13.17;83.69
69351;BME280;57106;51.446;-2.606;2023-04-27T22:13:57;100691.46;;;13.29;82.97
69351;BME280;57106;51.446;-2.606;2023-04-27T22:16:22;100687.79;;;13.07;83.73
69351;BME280;57106;51.446;-2.606;2023-04-27T22:18:47;100688.14;;;13.06;84.10
69351;BME280;57106;51.446;-2.606;2023-04-27T22:21:12;100685.96;;;12.93;84.74
69351;BME280;57106;51.446;-2.606;2023-04-27T22:23:39;100686.65;;;13.14;84.52
69351;BME280;57106;51.446;-2.606;2023-04-27T22:26:04;100684.07;;;13.08;84.64
69351;BME280;57106;51.446;-2.606;2023-04-27T22:28:29;100681.73;;;13.04;85.14
69351;BME280;57106;51.446;-2.606;2023-04-27T22:30:55;100682.90;;;13.10;85.27
69351;BME280;57106;51.446;-2.606;2023-04-27T22:33:20;100680.24;;;13.36;84.19
69351;BME280;57106;51.446;-2.606;2023-04-27T22:35:46;100678.41;;;13.32;83.96
69351;BME280;57106;51.446;-2.606;2023-04-27T22:38:11;100677.59;;;13.37;83.77
69351;BME280;57106;51.446;-2.606;2023-04-27T22:40:37;100678.19;;;13.31;83.61
69351;BME280;57106;51.446;-2.606;2023-04-27T22:43:02;100680.12;;;13.54;83.08
69351;BME280;57106;51.446;-2.606;2023-04-27T22:45:27;100678.01;;;13.68;82.72
69351;BME280;57106;51.446;-2.606;2023-04-27T22:47:53;100678.26;;;13.67;82.67
69351;BME280;57106;51.446;-2.606;2023-04-27T22:50:18;100682.40;;;13.78;82.37
69351;BME280;57106;51.446;-2.606;2023-04-27T22:52:44;100682.87;;;13.84;81.94
69351;BME280;57106;51.446;-2.606;2023-04-27T22:55:10;100680.73;;;13.76;82.04
69351;BME280;57106;51.446;-2.606;2023-04-27T22:57:34;100679.01;;;13.86;81.82
69351;BME280;57106;51.446;-2.606;2023-04-27T23:00:00;100675.71;;;13.80;81.95
69351;BME280;57106;51.446;-2.606;2023-04-27T23:02:25;100672.29;;;13.83;81.95
69351;BME280;57106;51.446;-2.606;2023-04-27T23:04:52;100668.99;;;13.78;82.05
69351;BME280;57106;51.446;-2.606;2023-04-27T23:07:16;100667.38;;;13.63;82.44
69351;BME280;57106;51.446;-2.606;2023-04-27T23:09:42;100670.75;;;13.72;82.38
69351;BME280;57106;51.446;-2.606;2023-04-27T23:12:07;100673.08;;;13.84;82.09
69351;BME280;57106;51.446;-2.606;2023-04-27T23:14:33;100670.89;;;13.87;81.72
69351;BME280;57106;51.446;-2.606;2023-04-27T23:16:59;100670.61;;;13.98;81.55
69351;BME280;57106;51.446;-2.606;2023-04-27T23:24:20;100667.01;;;13.85;81.94
69351;BME280;57106;51.446;-2.606;2023-04-27T23:46:04;100684.07;;;14.32;80.73
